RYR52XT LEPA-LEZL
Flight info
| Callsign | RYR52XT |
|---|---|
| Flight time | 1h 15m |
| Altitude | 35000 |
| Route | EPAMA4A EPAMA N733 VLC M985 YES N747 BLN BLN2K |
| Aircraft | B738/M-SDE2E3FGHIRWXY/LB1 |
Departure
| Time | 2026-03-27 13:55 |
|---|---|
| Airport | Palma de Mallorca Airport (LEPA) |
Arrival
| Time | 2026-03-27 15:10 |
|---|---|
| Airport | Seville Airport (LEZL) |
| Time | Latitude | Longitude | Altitude | Speed | Heading |
|---|---|---|---|---|---|
| 2026-03-27 13:36 | 39.55032 | 2.73490 | 36 ft | 0 kts | 163° |
| 2026-03-27 13:44 | 39.55034 | 2.73489 | 36 ft | 1 kts | 163° |
| 2026-03-27 13:45 | 39.55049 | 2.73482 | 36 ft | 3 kts | 146° |
| 2026-03-27 13:45 | 39.55062 | 2.73466 | 36 ft | 3 kts | 108° |
| 2026-03-27 13:45 | 39.55063 | 2.73446 | 36 ft | 2 kts | 63° |
| 2026-03-27 13:45 | 39.55061 | 2.73441 | 36 ft | 0 kts | 58° |
| 2026-03-27 13:47 | 39.55069 | 2.73456 | 32 ft | 7 kts | 57° |
| 2026-03-27 13:48 | 39.55106 | 2.73532 | 35 ft | 15 kts | 56° |
| 2026-03-27 13:48 | 39.55164 | 2.73636 | 36 ft | 10 kts | 28° |
| 2026-03-27 13:49 | 39.55211 | 2.73614 | 34 ft | 7 kts | 325° |
| 2026-03-27 13:49 | 39.55251 | 2.73578 | 36 ft | 7 kts | 321° |
| 2026-03-27 13:49 | 39.55297 | 2.73535 | 36 ft | 9 kts | 328° |
| 2026-03-27 13:49 | 39.55352 | 2.73497 | 36 ft | 9 kts | 333° |
| 2026-03-27 13:50 | 39.55371 | 2.73484 | 36 ft | 9 kts | 332° |
| 2026-03-27 13:50 | 39.55401 | 2.73463 | 36 ft | 10 kts | 332° |
| 2026-03-27 13:50 | 39.55461 | 2.73478 | 35 ft | 10 kts | 56° |
| 2026-03-27 13:51 | 39.55507 | 2.73549 | 36 ft | 11 kts | 33° |
| 2026-03-27 13:51 | 39.55579 | 2.73534 | 34 ft | 11 kts | 327° |
| 2026-03-27 13:51 | 39.55615 | 2.73511 | 35 ft | 12 kts | 342° |
| 2026-03-27 13:51 | 39.55669 | 2.73524 | 35 ft | 12 kts | 41° |
| 2026-03-27 13:52 | 39.55714 | 2.73618 | 35 ft | 13 kts | 59° |
| 2026-03-27 13:52 | 39.55761 | 2.73720 | 35 ft | 14 kts | 59° |
| 2026-03-27 13:52 | 39.55826 | 2.73862 | 34 ft | 24 kts | 59° |
| 2026-03-27 13:52 | 39.55915 | 2.74047 | 35 ft | 23 kts | 58° |
| 2026-03-27 13:53 | 39.56001 | 2.74213 | 35 ft | 22 kts | 45° |
| 2026-03-27 13:53 | 39.56124 | 2.74324 | 34 ft | 21 kts | 32° |
| 2026-03-27 13:53 | 39.56238 | 2.74326 | 29 ft | 16 kts | 294° |
| 2026-03-27 13:53 | 39.56200 | 2.74205 | 28 ft | 12 kts | 239° |
| 2026-03-27 13:54 | 39.56193 | 2.74189 | 28 ft | 0 kts | 239° |
| 2026-03-27 13:54 | 39.56100 | 2.73995 | 29 ft | 59 kts | 240° |
| 2026-03-27 13:54 | 39.55767 | 2.73286 | 28 ft | 122 kts | 238° |
| 2026-03-27 13:54 | 39.55227 | 2.72182 | 177 ft | 155 kts | 239° |
| 2026-03-27 13:55 | 39.54600 | 2.71027 | 718 ft | 161 kts | 236° |
| 2026-03-27 13:55 | 39.53949 | 2.69792 | 1149 ft | 176 kts | 239° |
| 2026-03-27 13:55 | 39.53286 | 2.68430 | 1738 ft | 178 kts | 241° |
| 2026-03-27 13:55 | 39.52580 | 2.66978 | 2074 ft | 202 kts | 239° |
| 2026-03-27 13:56 | 39.51803 | 2.65394 | 2513 ft | 212 kts | 238° |
| 2026-03-27 13:56 | 39.50986 | 2.63754 | 2960 ft | 222 kts | 238° |
| 2026-03-27 13:56 | 39.50142 | 2.62068 | 3582 ft | 224 kts | 239° |
| 2026-03-27 13:56 | 39.49283 | 2.60366 | 4281 ft | 226 kts | 238° |
| 2026-03-27 13:57 | 39.48414 | 2.58650 | 4938 ft | 231 kts | 239° |
| 2026-03-27 13:57 | 39.47525 | 2.56902 | 5701 ft | 230 kts | 239° |
| 2026-03-27 13:57 | 39.46637 | 2.55158 | 6408 ft | 234 kts | 239° |
| 2026-03-27 13:57 | 39.45733 | 2.53383 | 7040 ft | 239 kts | 240° |
| 2026-03-27 13:58 | 39.45006 | 2.51419 | 7395 ft | 251 kts | 266° |
| 2026-03-27 13:58 | 39.45143 | 2.49122 | 7677 ft | 265 kts | 286° |
| 2026-03-27 13:58 | 39.45510 | 2.46733 | 8290 ft | 274 kts | 286° |
| 2026-03-27 13:58 | 39.45872 | 2.44337 | 9069 ft | 277 kts | 287° |
| 2026-03-27 13:59 | 39.46236 | 2.41882 | 9923 ft | 279 kts | 288° |
| 2026-03-27 13:59 | 39.46604 | 2.39377 | 10455 ft | 292 kts | 288° |
| 2026-03-27 13:59 | 39.47001 | 2.36678 | 10665 ft | 316 kts | 287° |
| 2026-03-27 13:59 | 39.47408 | 2.33836 | 11243 ft | 324 kts | 287° |
| 2026-03-27 14:00 | 39.47812 | 2.30949 | 12022 ft | 327 kts | 287° |
| 2026-03-27 14:00 | 39.48216 | 2.28033 | 12798 ft | 332 kts | 286° |
| 2026-03-27 14:00 | 39.48629 | 2.25051 | 13455 ft | 340 kts | 286° |
| 2026-03-27 14:00 | 39.49046 | 2.22025 | 14259 ft | 342 kts | 286° |
| 2026-03-27 14:01 | 39.49463 | 2.18981 | 15073 ft | 343 kts | 286° |
| 2026-03-27 14:01 | 39.49875 | 2.15972 | 15874 ft | 345 kts | 286° |
| 2026-03-27 14:01 | 39.50295 | 2.12901 | 16663 ft | 348 kts | 286° |
| 2026-03-27 14:01 | 39.50719 | 2.09800 | 17429 ft | 351 kts | 286° |
| 2026-03-27 14:02 | 39.51147 | 2.06670 | 18203 ft | 354 kts | 286° |
| 2026-03-27 14:02 | 39.51577 | 2.03519 | 18877 ft | 357 kts | 286° |
| 2026-03-27 14:02 | 39.52011 | 2.00330 | 19503 ft | 361 kts | 286° |
| 2026-03-27 14:02 | 39.52436 | 1.97202 | 20109 ft | 365 kts | 286° |
| 2026-03-27 14:03 | 39.52877 | 1.93950 | 20735 ft | 368 kts | 286° |
| 2026-03-27 14:03 | 39.53321 | 1.90660 | 21321 ft | 372 kts | 285° |
| 2026-03-27 14:03 | 39.53772 | 1.87327 | 21861 ft | 378 kts | 285° |
| 2026-03-27 14:03 | 39.54226 | 1.83953 | 22465 ft | 381 kts | 285° |
| 2026-03-27 14:04 | 39.54681 | 1.80553 | 23085 ft | 384 kts | 285° |
| 2026-03-27 14:04 | 39.55133 | 1.77172 | 23681 ft | 387 kts | 285° |
| 2026-03-27 14:04 | 39.55594 | 1.73723 | 24168 ft | 390 kts | 285° |
| 2026-03-27 14:04 | 39.56057 | 1.70246 | 24657 ft | 393 kts | 285° |
| 2026-03-27 14:05 | 39.56522 | 1.66746 | 25137 ft | 396 kts | 285° |
| 2026-03-27 14:05 | 39.56991 | 1.63209 | 25637 ft | 398 kts | 285° |
| 2026-03-27 14:05 | 39.57461 | 1.59659 | 26123 ft | 401 kts | 286° |
| 2026-03-27 14:05 | 39.57932 | 1.56086 | 26575 ft | 404 kts | 286° |
| 2026-03-27 14:06 | 39.58407 | 1.52483 | 26991 ft | 407 kts | 285° |
| 2026-03-27 14:06 | 39.58885 | 1.48847 | 27372 ft | 411 kts | 285° |
| 2026-03-27 14:06 | 39.59367 | 1.45170 | 27799 ft | 414 kts | 285° |
| 2026-03-27 14:06 | 39.59849 | 1.41477 | 28262 ft | 416 kts | 285° |
| 2026-03-27 14:07 | 39.60296 | 1.37757 | 28692 ft | 421 kts | 281° |
| 2026-03-27 14:07 | 39.60279 | 1.33907 | 29093 ft | 432 kts | 272° |
| 2026-03-27 14:07 | 39.60039 | 1.30014 | 29503 ft | 435 kts | 271° |
| 2026-03-27 14:07 | 39.59765 | 1.26143 | 29932 ft | 437 kts | 271° |
| 2026-03-27 14:08 | 39.59490 | 1.22230 | 30432 ft | 435 kts | 271° |
| 2026-03-27 14:08 | 39.59231 | 1.18340 | 30952 ft | 432 kts | 272° |
| 2026-03-27 14:08 | 39.58991 | 1.14468 | 31391 ft | 430 kts | 272° |
| 2026-03-27 14:08 | 39.58762 | 1.10591 | 31776 ft | 431 kts | 272° |
| 2026-03-27 14:09 | 39.58539 | 1.06710 | 32178 ft | 431 kts | 272° |
| 2026-03-27 14:09 | 39.58317 | 1.02837 | 32620 ft | 430 kts | 272° |
| 2026-03-27 14:09 | 39.58101 | 0.99086 | 33059 ft | 428 kts | 272° |
| 2026-03-27 14:09 | 39.57878 | 0.95230 | 33466 ft | 428 kts | 272° |
| 2026-03-27 14:10 | 39.57653 | 0.91378 | 33845 ft | 428 kts | 272° |
| 2026-03-27 14:10 | 39.57428 | 0.87535 | 34169 ft | 429 kts | 272° |
| 2026-03-27 14:10 | 39.57200 | 0.83672 | 34464 ft | 429 kts | 272° |
| 2026-03-27 14:10 | 39.56970 | 0.79818 | 34814 ft | 428 kts | 271° |
| 2026-03-27 14:11 | 39.56743 | 0.76024 | 35010 ft | 430 kts | 270° |
| 2026-03-27 14:11 | 39.56275 | 0.68231 | 35020 ft | 433 kts | 270° |
| 2026-03-27 14:12 | 39.55801 | 0.60520 | 35015 ft | 425 kts | 271° |
| 2026-03-27 14:12 | 39.55333 | 0.52874 | 35029 ft | 426 kts | 270° |
| 2026-03-27 14:13 | 39.54861 | 0.45215 | 35023 ft | 427 kts | 270° |
| 2026-03-27 14:13 | 39.54382 | 0.37530 | 35003 ft | 428 kts | 270° |
| 2026-03-27 14:14 | 39.53896 | 0.29841 | 35009 ft | 428 kts | 270° |
| 2026-03-27 14:14 | 39.53402 | 0.22200 | 35017 ft | 429 kts | 270° |
| 2026-03-27 14:15 | 39.52897 | 0.14503 | 35004 ft | 429 kts | 270° |
| 2026-03-27 14:15 | 39.52387 | 0.06794 | 35002 ft | 429 kts | 270° |
| 2026-03-27 14:16 | 39.51880 | -0.00806 | 34988 ft | 429 kts | 270° |
| 2026-03-27 14:16 | 39.51362 | -0.08487 | 34996 ft | 428 kts | 269° |
| 2026-03-27 14:17 | 39.50841 | -0.16155 | 34999 ft | 427 kts | 269° |
| 2026-03-27 14:17 | 39.50315 | -0.23804 | 35002 ft | 426 kts | 269° |
| 2026-03-27 14:18 | 39.49786 | -0.31448 | 35000 ft | 426 kts | 269° |
| 2026-03-27 14:18 | 39.49256 | -0.39028 | 35002 ft | 425 kts | 269° |
| 2026-03-27 14:19 | 39.48418 | -0.46623 | 34994 ft | 432 kts | 257° |
| 2026-03-27 14:19 | 39.47292 | -0.50244 | 35002 ft | 437 kts | 246° |
| 2026-03-27 14:19 | 39.45662 | -0.53599 | 34996 ft | 442 kts | 237° |
| 2026-03-27 14:20 | 39.41891 | -0.59891 | 34992 ft | 443 kts | 236° |
| 2026-03-27 14:20 | 39.38113 | -0.66184 | 34995 ft | 443 kts | 236° |
| 2026-03-27 14:21 | 39.34374 | -0.72513 | 34971 ft | 443 kts | 236° |
| 2026-03-27 14:21 | 39.30636 | -0.78863 | 34964 ft | 444 kts | 236° |
| 2026-03-27 14:22 | 39.26917 | -0.85161 | 34973 ft | 445 kts | 236° |
| 2026-03-27 14:22 | 39.23146 | -0.91521 | 34972 ft | 446 kts | 236° |
| 2026-03-27 14:23 | 39.20007 | -0.96803 | 34977 ft | 446 kts | 236° |
| 2026-03-27 14:23 | 39.16283 | -1.03061 | 34971 ft | 447 kts | 236° |
| 2026-03-27 14:24 | 39.12495 | -1.09417 | 34972 ft | 447 kts | 236° |
| 2026-03-27 14:24 | 39.08699 | -1.15774 | 34955 ft | 448 kts | 235° |
| 2026-03-27 14:25 | 39.04900 | -1.22126 | 34968 ft | 448 kts | 235° |
| 2026-03-27 14:25 | 39.01090 | -1.28482 | 34976 ft | 448 kts | 235° |
| 2026-03-27 14:26 | 38.97309 | -1.34788 | 34979 ft | 448 kts | 235° |
| 2026-03-27 14:26 | 38.93502 | -1.41132 | 34979 ft | 448 kts | 235° |
| 2026-03-27 14:27 | 38.89686 | -1.47478 | 34991 ft | 448 kts | 235° |
| 2026-03-27 14:27 | 38.85872 | -1.53809 | 34974 ft | 448 kts | 234° |
| 2026-03-27 14:28 | 38.82062 | -1.60119 | 34988 ft | 447 kts | 234° |
| 2026-03-27 14:28 | 38.78253 | -1.66417 | 34993 ft | 446 kts | 234° |
| 2026-03-27 14:29 | 38.74448 | -1.72700 | 34998 ft | 445 kts | 234° |
| 2026-03-27 14:29 | 38.70646 | -1.78959 | 34995 ft | 445 kts | 234° |
| 2026-03-27 14:30 | 38.66867 | -1.85160 | 34997 ft | 444 kts | 234° |
| 2026-03-27 14:30 | 38.63064 | -1.91389 | 34985 ft | 444 kts | 234° |
| 2026-03-27 14:31 | 38.59258 | -1.97617 | 34994 ft | 444 kts | 234° |
| 2026-03-27 14:31 | 38.55508 | -2.03743 | 34996 ft | 444 kts | 234° |
| 2026-03-27 14:32 | 38.51694 | -2.09958 | 34999 ft | 445 kts | 234° |
| 2026-03-27 14:32 | 38.47876 | -2.16176 | 34991 ft | 445 kts | 234° |
| 2026-03-27 14:33 | 38.44051 | -2.22399 | 34982 ft | 446 kts | 233° |
| 2026-03-27 14:33 | 38.40221 | -2.28620 | 34988 ft | 446 kts | 233° |
| 2026-03-27 14:34 | 38.36717 | -2.35105 | 34976 ft | 442 kts | 246° |
| 2026-03-27 14:34 | 38.34840 | -2.42483 | 34988 ft | 437 kts | 261° |
| 2026-03-27 14:35 | 38.33686 | -2.50091 | 34976 ft | 438 kts | 262° |
| 2026-03-27 14:35 | 38.32522 | -2.57703 | 34973 ft | 438 kts | 261° |
| 2026-03-27 14:36 | 38.30722 | -2.69050 | 34969 ft | 438 kts | 261° |
| 2026-03-27 14:36 | 38.29498 | -2.76647 | 34970 ft | 438 kts | 261° |
| 2026-03-27 14:37 | 38.28267 | -2.84250 | 34965 ft | 438 kts | 261° |
| 2026-03-27 14:37 | 38.27033 | -2.91840 | 34965 ft | 438 kts | 261° |
| 2026-03-27 14:38 | 38.25795 | -2.99428 | 34966 ft | 438 kts | 261° |
| 2026-03-27 14:38 | 38.24571 | -3.06895 | 34966 ft | 437 kts | 261° |
| 2026-03-27 14:39 | 38.23333 | -3.14421 | 34973 ft | 437 kts | 261° |
| 2026-03-27 14:39 | 38.22083 | -3.21983 | 34968 ft | 437 kts | 261° |
| 2026-03-27 14:40 | 38.20827 | -3.29553 | 34979 ft | 438 kts | 260° |
| 2026-03-27 14:40 | 38.19562 | -3.37143 | 34978 ft | 438 kts | 260° |
| 2026-03-27 14:41 | 38.18293 | -3.44727 | 34961 ft | 439 kts | 260° |
| 2026-03-27 14:41 | 38.17025 | -3.52274 | 34678 ft | 432 kts | 260° |
| 2026-03-27 14:42 | 38.16399 | -3.55989 | 34340 ft | 427 kts | 260° |
| 2026-03-27 14:42 | 38.15777 | -3.59671 | 33988 ft | 424 kts | 260° |
| 2026-03-27 14:42 | 38.15144 | -3.63311 | 33577 ft | 422 kts | 258° |
| 2026-03-27 14:42 | 38.14376 | -3.66854 | 33184 ft | 420 kts | 255° |
| 2026-03-27 14:43 | 38.13507 | -3.70387 | 32790 ft | 417 kts | 254° |
| 2026-03-27 14:43 | 38.12613 | -3.73881 | 32426 ft | 414 kts | 253° |
| 2026-03-27 14:43 | 38.11723 | -3.77350 | 32066 ft | 411 kts | 254° |
| 2026-03-27 14:43 | 38.10848 | -3.80797 | 31701 ft | 409 kts | 254° |
| 2026-03-27 14:44 | 38.09986 | -3.84226 | 31344 ft | 406 kts | 254° |
| 2026-03-27 14:44 | 38.09136 | -3.87640 | 30994 ft | 404 kts | 254° |
| 2026-03-27 14:44 | 38.08297 | -3.91029 | 30645 ft | 402 kts | 255° |
| 2026-03-27 14:44 | 38.07460 | -3.94409 | 30299 ft | 400 kts | 255° |
| 2026-03-27 14:45 | 38.06631 | -3.97765 | 29925 ft | 398 kts | 255° |
| 2026-03-27 14:45 | 38.05820 | -4.01040 | 29525 ft | 395 kts | 255° |
| 2026-03-27 14:45 | 38.04999 | -4.04353 | 29138 ft | 392 kts | 255° |
| 2026-03-27 14:45 | 38.04195 | -4.07596 | 28781 ft | 389 kts | 255° |
| 2026-03-27 14:46 | 38.03385 | -4.10853 | 28410 ft | 386 kts | 255° |
| 2026-03-27 14:46 | 38.02580 | -4.14087 | 28048 ft | 383 kts | 255° |
| 2026-03-27 14:46 | 38.01779 | -4.17302 | 27691 ft | 381 kts | 255° |
| 2026-03-27 14:46 | 38.00981 | -4.20500 | 27325 ft | 378 kts | 255° |
| 2026-03-27 14:47 | 38.00189 | -4.23669 | 26983 ft | 376 kts | 255° |
| 2026-03-27 14:47 | 37.99403 | -4.26814 | 26631 ft | 374 kts | 255° |
| 2026-03-27 14:47 | 37.98618 | -4.29948 | 26270 ft | 372 kts | 255° |
| 2026-03-27 14:47 | 37.97836 | -4.33064 | 25933 ft | 370 kts | 255° |
| 2026-03-27 14:48 | 37.97058 | -4.36162 | 25590 ft | 368 kts | 255° |
| 2026-03-27 14:48 | 37.96282 | -4.39250 | 25235 ft | 367 kts | 255° |
| 2026-03-27 14:48 | 37.95509 | -4.42321 | 24895 ft | 365 kts | 255° |
| 2026-03-27 14:48 | 37.94737 | -4.45381 | 24557 ft | 364 kts | 255° |
| 2026-03-27 14:49 | 37.93970 | -4.48422 | 24215 ft | 362 kts | 255° |
| 2026-03-27 14:49 | 37.93202 | -4.51465 | 23855 ft | 362 kts | 255° |
| 2026-03-27 14:49 | 37.92434 | -4.54500 | 23504 ft | 361 kts | 255° |
| 2026-03-27 14:49 | 37.91670 | -4.57515 | 23098 ft | 359 kts | 255° |
| 2026-03-27 14:50 | 37.90907 | -4.60527 | 22729 ft | 357 kts | 255° |
| 2026-03-27 14:50 | 37.90148 | -4.63513 | 22381 ft | 355 kts | 255° |
| 2026-03-27 14:50 | 37.89393 | -4.66484 | 22041 ft | 353 kts | 255° |
| 2026-03-27 14:51 | 37.87897 | -4.72361 | 21340 ft | 348 kts | 255° |
| 2026-03-27 14:51 | 37.87157 | -4.75265 | 21005 ft | 346 kts | 255° |
| 2026-03-27 14:51 | 37.86420 | -4.78154 | 20683 ft | 344 kts | 255° |
| 2026-03-27 14:51 | 37.85694 | -4.80994 | 20357 ft | 342 kts | 255° |
| 2026-03-27 14:52 | 37.84962 | -4.83852 | 20028 ft | 341 kts | 254° |
| 2026-03-27 14:52 | 37.84308 | -4.86719 | 19745 ft | 337 kts | 259° |
| 2026-03-27 14:52 | 37.83830 | -4.89603 | 19441 ft | 334 kts | 262° |
| 2026-03-27 14:52 | 37.83411 | -4.92491 | 19125 ft | 332 kts | 262° |
| 2026-03-27 14:53 | 37.83003 | -4.95366 | 18800 ft | 331 kts | 262° |
| 2026-03-27 14:53 | 37.82591 | -4.98233 | 18483 ft | 331 kts | 262° |
| 2026-03-27 14:53 | 37.82178 | -5.01040 | 18152 ft | 330 kts | 261° |
| 2026-03-27 14:53 | 37.81757 | -5.03851 | 17799 ft | 329 kts | 261° |
| 2026-03-27 14:54 | 37.81324 | -5.06693 | 17458 ft | 328 kts | 261° |
| 2026-03-27 14:54 | 37.80890 | -5.09515 | 17127 ft | 326 kts | 261° |
| 2026-03-27 14:54 | 37.80454 | -5.12330 | 16800 ft | 325 kts | 261° |
| 2026-03-27 14:54 | 37.80020 | -5.15126 | 16475 ft | 323 kts | 261° |
| 2026-03-27 14:55 | 37.79586 | -5.17907 | 16160 ft | 322 kts | 261° |
| 2026-03-27 14:55 | 37.79152 | -5.20679 | 15847 ft | 321 kts | 261° |
| 2026-03-27 14:55 | 37.78719 | -5.23446 | 15534 ft | 319 kts | 261° |
| 2026-03-27 14:55 | 37.78288 | -5.26199 | 15220 ft | 318 kts | 261° |
| 2026-03-27 14:56 | 37.77856 | -5.28946 | 14906 ft | 318 kts | 261° |
| 2026-03-27 14:56 | 37.77424 | -5.31685 | 14586 ft | 318 kts | 261° |
| 2026-03-27 14:56 | 37.76993 | -5.34421 | 14259 ft | 317 kts | 261° |
| 2026-03-27 14:56 | 37.76567 | -5.37114 | 13953 ft | 316 kts | 261° |
| 2026-03-27 14:57 | 37.76135 | -5.39848 | 13608 ft | 316 kts | 262° |
| 2026-03-27 14:57 | 37.75705 | -5.42562 | 13265 ft | 315 kts | 261° |
| 2026-03-27 14:57 | 37.75273 | -5.45278 | 12934 ft | 314 kts | 261° |
| 2026-03-27 14:57 | 37.74845 | -5.47974 | 12601 ft | 313 kts | 261° |
| 2026-03-27 14:58 | 37.74417 | -5.50661 | 12288 ft | 311 kts | 261° |
| 2026-03-27 14:58 | 37.73991 | -5.53334 | 11968 ft | 310 kts | 261° |
| 2026-03-27 14:58 | 37.73565 | -5.55999 | 11655 ft | 308 kts | 261° |
| 2026-03-27 14:58 | 37.73143 | -5.58642 | 11350 ft | 307 kts | 261° |
| 2026-03-27 14:59 | 37.72720 | -5.61281 | 11035 ft | 306 kts | 261° |
| 2026-03-27 14:59 | 37.72299 | -5.63905 | 10727 ft | 305 kts | 261° |
| 2026-03-27 14:59 | 37.71879 | -5.66522 | 10419 ft | 304 kts | 261° |
| 2026-03-27 14:59 | 37.71459 | -5.69130 | 10157 ft | 301 kts | 261° |
| 2026-03-27 15:00 | 37.71042 | -5.71709 | 9925 ft | 298 kts | 262° |
| 2026-03-27 15:00 | 37.70633 | -5.74249 | 9608 ft | 297 kts | 262° |
| 2026-03-27 15:00 | 37.70221 | -5.76800 | 9317 ft | 296 kts | 261° |
| 2026-03-27 15:00 | 37.69809 | -5.79345 | 9017 ft | 295 kts | 261° |
| 2026-03-27 15:01 | 37.69399 | -5.81876 | 8714 ft | 293 kts | 262° |
| 2026-03-27 15:01 | 37.68990 | -5.84401 | 8420 ft | 292 kts | 261° |
| 2026-03-27 15:01 | 37.68582 | -5.86914 | 8125 ft | 292 kts | 261° |
| 2026-03-27 15:01 | 37.68174 | -5.89426 | 7834 ft | 292 kts | 261° |
| 2026-03-27 15:02 | 37.67765 | -5.91939 | 7527 ft | 292 kts | 261° |
| 2026-03-27 15:02 | 37.67361 | -5.94416 | 7240 ft | 292 kts | 261° |
| 2026-03-27 15:02 | 37.66951 | -5.96925 | 6950 ft | 292 kts | 260° |
| 2026-03-27 15:02 | 37.66538 | -5.99441 | 6647 ft | 292 kts | 260° |
| 2026-03-27 15:03 | 37.65922 | -6.01811 | 6320 ft | 294 kts | 238° |
| 2026-03-27 15:03 | 37.64538 | -6.03686 | 6046 ft | 291 kts | 216° |
| 2026-03-27 15:03 | 37.62882 | -6.05151 | 5733 ft | 289 kts | 213° |
| 2026-03-27 15:03 | 37.61222 | -6.06567 | 5478 ft | 288 kts | 213° |
| 2026-03-27 15:04 | 37.59560 | -6.07992 | 5178 ft | 288 kts | 214° |
| 2026-03-27 15:04 | 37.57917 | -6.09417 | 4876 ft | 286 kts | 214° |
| 2026-03-27 15:04 | 37.56314 | -6.10821 | 4608 ft | 283 kts | 214° |
| 2026-03-27 15:04 | 37.54696 | -6.12240 | 4343 ft | 282 kts | 214° |
| 2026-03-27 15:05 | 37.53092 | -6.13646 | 4112 ft | 278 kts | 213° |
| 2026-03-27 15:05 | 37.51363 | -6.14598 | 3952 ft | 269 kts | 186° |
| 2026-03-27 15:05 | 37.49533 | -6.14503 | 3755 ft | 260 kts | 164° |
| 2026-03-27 15:05 | 37.47801 | -6.13902 | 3531 ft | 257 kts | 162° |
| 2026-03-27 15:06 | 37.46090 | -6.13291 | 3321 ft | 253 kts | 162° |
| 2026-03-27 15:06 | 37.44398 | -6.12700 | 3104 ft | 251 kts | 161° |
| 2026-03-27 15:06 | 37.42773 | -6.12027 | 3018 ft | 241 kts | 148° |
| 2026-03-27 15:06 | 37.41711 | -6.10586 | 2998 ft | 216 kts | 109° |
| 2026-03-27 15:07 | 37.41624 | -6.08776 | 2864 ft | 205 kts | 79° |
| 2026-03-27 15:07 | 37.41761 | -6.07002 | 2593 ft | 201 kts | 88° |
| 2026-03-27 15:07 | 37.41755 | -6.05278 | 2334 ft | 197 kts | 88° |
| 2026-03-27 15:07 | 37.41755 | -6.03568 | 2055 ft | 194 kts | 87° |
| 2026-03-27 15:08 | 37.41755 | -6.01883 | 1756 ft | 190 kts | 86° |
| 2026-03-27 15:08 | 37.41760 | -6.00247 | 1512 ft | 185 kts | 88° |
| 2026-03-27 15:08 | 37.41759 | -5.98663 | 1268 ft | 174 kts | 87° |
| 2026-03-27 15:08 | 37.41769 | -5.97164 | 1046 ft | 168 kts | 87° |
| 2026-03-27 15:09 | 37.41770 | -5.96219 | 917 ft | 158 kts | 86° |
| 2026-03-27 15:09 | 37.41779 | -5.94887 | 689 ft | 148 kts | 85° |
| 2026-03-27 15:09 | 37.41797 | -5.93625 | 533 ft | 144 kts | 88° |
| 2026-03-27 15:09 | 37.41788 | -5.92343 | 312 ft | 146 kts | 87° |
| 2026-03-27 15:10 | 37.41789 | -5.91062 | 118 ft | 148 kts | 87° |
| 2026-03-27 15:10 | 37.41794 | -5.89872 | 98 ft | 124 kts | 90° |
| 2026-03-27 15:10 | 37.41797 | -5.88966 | 102 ft | 81 kts | 89° |
| 2026-03-27 15:10 | 37.41852 | -5.88756 | 103 ft | 15 kts | 345° |
| 2026-03-27 15:11 | 37.41953 | -5.88754 | 102 ft | 14 kts | 1° |
| 2026-03-27 15:11 | 37.41984 | -5.88839 | 101 ft | 12 kts | 272° |
| 2026-03-27 15:11 | 37.41984 | -5.88943 | 101 ft | 12 kts | 270° |
| 2026-03-27 15:11 | 37.41984 | -5.89047 | 100 ft | 12 kts | 270° |
| 2026-03-27 15:12 | 37.41984 | -5.89152 | 99 ft | 12 kts | 270° |
| 2026-03-27 15:12 | 37.41976 | -5.89257 | 98 ft | 12 kts | 270° |
| 2026-03-27 15:12 | 37.41990 | -5.89358 | 98 ft | 11 kts | 293° |
| 2026-03-27 15:12 | 37.42040 | -5.89437 | 98 ft | 12 kts | 312° |
| 2026-03-27 15:13 | 37.42096 | -5.89514 | 98 ft | 12 kts | 312° |
| 2026-03-27 15:13 | 37.42158 | -5.89589 | 95 ft | 13 kts | 316° |
| 2026-03-27 15:13 | 37.42154 | -5.89654 | 98 ft | 8 kts | 222° |
| 2026-03-27 15:13 | 37.42117 | -5.89697 | 94 ft | 7 kts | 223° |
| 2026-03-27 15:14 | 37.42083 | -5.89738 | 98 ft | 6 kts | 228° |
| 2026-03-27 15:14 | 37.42055 | -5.89781 | 95 ft | 6 kts | 233° |
| 2026-03-27 15:14 | 37.42065 | -5.89816 | 95 ft | 5 kts | 309° |
| 2026-03-27 15:14 | 37.42087 | -5.89848 | 97 ft | 3 kts | 317° |
| 2026-03-27 15:15 | 37.42092 | -5.89853 | 96 ft | 0 kts | 317° |